Change the Weather History Date:

Thursday, November 1, 2012

  Actual Average (KLOZ) Record (KLOZ)
Temperature  
Mean Temperature 42 °F 52 °F  
Max Temperature 51 °F 64 °F 81 °F (1987)
Min Temperature 33 °F 41 °F 27 °F (1962)
Degree Days  
Heating Degree Days 23 13  
Month to date heating degree days 13  
Since 1 July heating degree days 319  
Cooling Degree Days 0 0  
Month to date cooling degree days 0  
Moisture  
Dew Point 26 °F    
Average Humidity 51    
Maximum Humidity 81    
Minimum Humidity 28    
Precipitation  
Precipitation 0.00 in 0.12 in 1.76 in (1967)
Month to date precipitation 0.12  
Sea Level Pressure  
Sea Level Pressure 29.90 in    
Wind  
Wind Speed 9 mph (West)    
Max Wind Speed 18 mph    
Max Gust Speed 23 mph    
Visibility 10 miles    
Events      
T = Trace of Precipitation, MM = Missing Value Source: NWS Daily Summary

Daily Weather History Graph

Daily Weather History Graph

Search for Another Location

Airport or City:

Trip Planner

Search our weather history database for the weather conditions in past years. The results will help you decide how hot, cold, wet, or windy it might be!

Date:

Astronomy

Nov. 01, 2012 Rise Set
Actual Time 8:02 AM EDT 6:38 PM EDT
Civil Twilight 7:35 AM EDT 7:05 PM EDT
Nautical Twilight 7:04 AM EDT 7:36 PM EDT
Astronomical Twilight 6:34 AM EDT 8:06 PM EDT
Moon 8:37 PM EDT (11/1) 10:32 AM EDT (11/1)
Length of Visible Light 11h 29m
Length of Day
10h 35m
Waning Gibbous, 93% of the Moon is Illuminated
Nov 1
Waning Gibbous
Nov 6
Last Quarter
Nov 13
New
Nov 20
First Quarter
Nov 28
Full

Hourly Weather History & Observations

Time (EDT) Temp. Windchill Dew Point Humidity Pressure Visibility Wind Dir Wind Speed Gust Speed Precip Events Conditions
12:15 AM 42.8 °F 37.0 °F 32.0 °F 66% 29.87 in 10.0 mi West 10.4 mph - N/A   Overcast
12:35 AM 42.8 °F 36.2 °F 32.0 °F 66% 29.87 in 10.0 mi West 12.7 mph 18.4 mph N/A   Overcast
12:55 AM 42.8 °F 37.0 °F 32.0 °F 66% 29.88 in 10.0 mi West 10.4 mph 16.1 mph N/A   Overcast
1:15 AM 42.8 °F 38.6 °F 32.0 °F 66% 29.88 in 10.0 mi West 6.9 mph - N/A   Overcast
1:35 AM 42.8 °F 38.6 °F 32.0 °F 66% 29.87 in 10.0 mi West 6.9 mph - N/A   Overcast
1:55 AM 42.8 °F 38.6 °F 32.0 °F 66% 29.87 in 10.0 mi West 6.9 mph - N/A   Overcast
2:15 AM 42.8 °F 38.6 °F 32.0 °F 66% 29.87 in 10.0 mi West 6.9 mph - N/A   Overcast
2:35 AM 42.8 °F 38.6 °F 32.0 °F 66% 29.87 in 10.0 mi West 6.9 mph - N/A   Overcast
2:55 AM 42.8 °F 39.3 °F 32.0 °F 66% 29.87 in 10.0 mi West 5.8 mph - N/A   Overcast
3:15 AM 42.8 °F 39.3 °F 32.0 °F 66% 29.86 in 10.0 mi West 5.8 mph - N/A   Overcast
3:35 AM 42.8 °F 38.0 °F 32.0 °F 66% 29.86 in 10.0 mi West 8.1 mph - N/A   Overcast
3:55 AM 41.0 °F 36.4 °F 32.0 °F 70% 29.86 in 10.0 mi West 6.9 mph - N/A   Overcast
4:15 AM 42.8 °F 38.6 °F 32.0 °F 66% 29.86 in 10.0 mi West 6.9 mph - N/A   Overcast
4:35 AM 41.0 °F 36.4 °F 32.0 °F 70% 29.86 in 10.0 mi West 6.9 mph - N/A   Overcast
4:55 AM 41.0 °F 35.8 °F 32.0 °F 70% 29.86 in 10.0 mi West 8.1 mph - N/A   Overcast
5:15 AM 41.0 °F 36.4 °F 32.0 °F 70% 29.86 in 10.0 mi West 6.9 mph - N/A   Overcast
5:35 AM 41.0 °F 35.8 °F 32.0 °F 70% 29.86 in 10.0 mi West 8.1 mph - N/A   Overcast
5:55 AM 41.0 °F 37.1 °F 32.0 °F 70% 29.86 in 10.0 mi West 5.8 mph - N/A   Overcast
6:15 AM 41.0 °F 36.4 °F 32.0 °F 70% 29.87 in 10.0 mi West 6.9 mph - N/A   Overcast
6:35 AM 41.0 °F 35.2 °F 30.2 °F 65% 29.88 in 10.0 mi West 9.2 mph - N/A   Overcast
6:55 AM 39.2 °F 33.0 °F 28.4 °F 65% 29.88 in 10.0 mi West 9.2 mph - N/A   Scattered Clouds
7:15 AM 37.4 °F 30.8 °F 28.4 °F 70% 29.89 in 10.0 mi West 9.2 mph - N/A   Clear
7:35 AM 37.4 °F 32.1 °F 26.6 °F 65% 29.90 in 10.0 mi West 6.9 mph - N/A   Clear
7:55 AM 35.6 °F 31.7 °F 28.4 °F 75% 29.90 in 10.0 mi West 4.6 mph - N/A   Clear
8:15 AM 35.6 °F 31.7 °F 28.4 °F 75% 29.90 in 10.0 mi WSW 4.6 mph - N/A   Clear
8:35 AM 33.8 °F 29.6 °F 28.4 °F 81% 29.91 in 10.0 mi WSW 4.6 mph - N/A   Clear
8:55 AM 35.6 °F 29.9 °F 28.4 °F 75% 29.92 in 10.0 mi WSW 6.9 mph - N/A   Clear
9:15 AM 35.6 °F 29.9 °F 28.4 °F 75% 29.92 in 10.0 mi WSW 6.9 mph - N/A   Clear
9:35 AM 37.4 °F 30.8 °F 28.4 °F 70% 29.92 in 10.0 mi WSW 9.2 mph - N/A   Clear
9:55 AM 39.2 °F 33.0 °F 26.6 °F 61% 29.92 in 10.0 mi West 9.2 mph - N/A   Clear
10:15 AM 39.2 °F 33.0 °F 26.6 °F 61% 29.93 in 10.0 mi WSW 9.2 mph - N/A   Clear
10:35 AM 41.0 °F 35.2 °F 28.4 °F 61% 29.93 in 10.0 mi WSW 9.2 mph - N/A   Clear
10:55 AM 42.8 °F 37.5 °F 28.4 °F 57% 29.93 in 10.0 mi West 9.2 mph - N/A   Clear
11:15 AM 44.6 °F 39.2 °F 28.4 °F 53% 29.93 in 10.0 mi West 10.4 mph - N/A   Clear
11:35 AM 44.6 °F 39.2 °F 28.4 °F 53% 29.93 in 10.0 mi West 10.4 mph - N/A   Clear
11:55 AM 44.6 °F 38.1 °F 26.6 °F 49% 29.94 in 10.0 mi West 13.8 mph 20.7 mph N/A   Clear
12:15 PM 46.4 °F 40.1 °F 24.8 °F 43% 29.94 in 10.0 mi WNW 15.0 mph 18.4 mph N/A   Clear
12:35 PM 48.2 °F - 26.6 °F 43% 29.94 in 10.0 mi West 12.7 mph 17.3 mph N/A   Scattered Clouds
12:55 PM 48.2 °F - 26.6 °F 43% 29.93 in 10.0 mi West 13.8 mph 20.7 mph N/A   Mostly Cloudy
1:15 PM 48.2 °F - 24.8 °F 40% 29.93 in 10.0 mi West 12.7 mph 19.6 mph N/A   Overcast
1:35 PM 48.2 °F - 24.8 °F 40% 29.92 in 10.0 mi West 11.5 mph - N/A   Overcast
1:55 PM 50.0 °F - 21.2 °F 32% 29.90 in 10.0 mi West 15.0 mph 20.7 mph N/A   Mostly Cloudy
2:15 PM 48.2 °F - 21.2 °F 34% 29.91 in 10.0 mi West 11.5 mph 18.4 mph N/A   Overcast
2:35 PM 50.0 °F - 21.2 °F 32% 29.90 in 10.0 mi WSW 13.8 mph 20.7 mph N/A   Overcast
3:15 PM 51.8 °F - 21.2 °F 30% 29.90 in 10.0 mi West 18.4 mph 23.0 mph N/A   Overcast
3:35 PM 51.8 °F - 21.2 °F 30% 29.90 in 10.0 mi West 15.0 mph 19.6 mph N/A   Overcast
3:55 PM 51.8 °F - 21.2 °F 30% 29.90 in 10.0 mi West 13.8 mph 19.6 mph N/A   Scattered Clouds
4:15 PM 51.8 °F - 21.2 °F 30% 29.89 in 10.0 mi West 13.8 mph 17.3 mph N/A   Clear
4:35 PM 51.8 °F - 21.2 °F 30% 29.89 in 10.0 mi West 16.1 mph 19.6 mph N/A   Clear
4:55 PM 51.8 °F - 21.2 °F 30% 29.89 in 10.0 mi West 11.5 mph 17.3 mph N/A   Clear
5:15 PM 51.8 °F - 19.4 °F 28% 29.89 in 10.0 mi West 13.8 mph - N/A   Clear
5:35 PM 51.8 °F - 21.2 °F 30% 29.89 in 10.0 mi West 10.4 mph 18.4 mph N/A   Clear
5:55 PM 50.0 °F - 21.2 °F 32% 29.89 in 10.0 mi West 9.2 mph - N/A   Clear
6:15 PM 48.2 °F - 21.2 °F 34% 29.89 in 10.0 mi West 9.2 mph - N/A   Mostly Cloudy
6:35 PM 48.2 °F - 21.2 °F 34% 29.89 in 10.0 mi West 6.9 mph - N/A   Mostly Cloudy
6:55 PM 46.4 °F 43.5 °F 21.2 °F 37% 29.89 in 10.0 mi West 5.8 mph - N/A   Mostly Cloudy
7:15 PM 46.4 °F 43.5 °F 21.2 °F 37% 29.89 in 10.0 mi WSW 5.8 mph - N/A   Overcast
7:35 PM 46.4 °F 43.5 °F 21.2 °F 37% 29.89 in 10.0 mi WSW 5.8 mph - N/A   Overcast
7:55 PM 48.2 °F - 21.2 °F 34% 29.90 in 10.0 mi WSW 6.9 mph - N/A   Overcast
8:15 PM 48.2 °F - 21.2 °F 34% 29.90 in 10.0 mi WSW 4.6 mph - N/A   Overcast
8:35 PM 48.2 °F - 23.0 °F 37% 29.90 in 10.0 mi WSW 4.6 mph - N/A   Overcast
8:55 PM 48.2 °F - 21.2 °F 34% 29.90 in 10.0 mi SW 5.8 mph - N/A   Overcast
9:15 PM 48.2 °F - 21.2 °F 34% 29.90 in 10.0 mi SW 6.9 mph - N/A   Overcast
9:35 PM 48.2 °F - 21.2 °F 34% 29.90 in 10.0 mi SW 6.9 mph - N/A   Overcast
9:55 PM 48.2 °F - 23.0 °F 37% 29.90 in 10.0 mi SSW 4.6 mph - N/A   Overcast
10:15 PM 48.2 °F - 23.0 °F 37% 29.90 in 10.0 mi SW 6.9 mph - N/A   Overcast
10:35 PM 48.2 °F - 21.2 °F 34% 29.90 in 10.0 mi SW 6.9 mph - N/A   Overcast
10:55 PM 48.2 °F - 23.0 °F 37% 29.90 in 10.0 mi SW 4.6 mph - N/A   Overcast
11:15 PM 48.2 °F - 21.2 °F 34% 29.90 in 10.0 mi WSW 5.8 mph - N/A   Overcast
11:35 PM 48.2 °F - 21.2 °F 34% 29.90 in 10.0 mi SW 6.9 mph - N/A   Overcast
11:55 PM 48.2 °F - 23.0 °F 37% 29.90 in 10.0 mi WSW 5.8 mph - N/A   Overcast